Time;durP1;ratioP1;P1;durP2;ratioP2;P2;SDS_P1;SDS_P2;PMS_P1;PMS_P2;Temp;Humidity;BMP_temperature;BMP_pressure;BME280_temperature;BME280_humidity;BME280_pressure;Samples;Min_cycle;Max_cycle;Signal;HPM_P1;HPM_P2
2023/10/06 00:06:54;;;;;;;1.47;0.80;;;;;;;;;;20920348;28;20256;-88
2023/10/06 00:16:57;;;;;;;1.80;0.83;;;;;;;;;;20906798;28;20248;-87
2023/10/06 00:26:59;;;;;;;2.40;0.90;;;;;;;;;;20896102;28;20533;-88
2023/10/06 00:37:11;;;;;;;1.83;0.80;;;;;;;;;;20919800;28;20756;-88
2023/10/06 00:47:14;;;;;;;2.30;1.00;;;;;;;;;;20874080;28;20749;-88
2023/10/06 00:57:24;;;;;;;3.07;1.27;;;;;;;;;;20889742;28;20571;-88
2023/10/06 01:17:38;;;;;;;1.97;0.87;;;;;;;;;;21185012;27;20581;-64
2023/10/06 01:27:43;;;;;;;2.27;0.97;;;;;;;;;;21111021;28;20628;-64
2023/10/06 01:37:51;;;;;;;1.70;0.90;;;;;;;;;;21127594;28;20211;-65
2023/10/06 01:48:00;;;;;;;1.30;0.70;;;;;;;;;;21080275;28;20292;-64
2023/10/06 01:58:03;;;;;;;2.53;1.13;;;;;;;;;;21100378;28;20208;-64
2023/10/06 02:08:09;;;;;;;1.27;0.90;;;12.00;99.90;;;;;;21119549;28;20215;-65
2023/10/06 02:18:12;;;;;;;1.30;0.80;;;;;;;;;;21114332;28;20204;-65
2023/10/06 02:28:14;;;;;;;3.33;1.10;;;;;;;;;;21045871;28;20277;-65
2023/10/06 02:38:16;;;;;;;2.60;1.20;;;;;;;;;;21044763;28;20744;-64
2023/10/06 02:48:22;;;;;;;1.43;0.90;;;;;;;;;;21046344;28;20625;-65
2023/10/06 02:58:30;;;;;;;1.00;0.67;;;;;;;;;;21037868;28;20768;-65
2023/10/06 03:08:32;;;;;;;1.37;0.80;;;;;;;;;;21059599;28;20246;-64
2023/10/06 03:18:34;;;;;;;2.23;1.00;;;;;;;;;;21040217;28;20238;-65
2023/10/06 03:28:36;;;;;;;1.30;0.73;;;;;;;;;;21037435;28;20273;-65
2023/10/06 03:38:43;;;;;;;1.80;1.00;;;;;;;;;;21045350;28;20630;-65
2023/10/06 03:48:49;;;;;;;1.40;0.80;;;11.70;99.90;;;;;;21043080;28;20212;-65
2023/10/06 03:58:52;;;;;;;3.47;1.67;;;;;;;;;;21025373;28;20257;-65
2023/10/06 04:08:56;;;;;;;2.63;1.33;;;;;;;;;;21038086;28;20726;-64
2023/10/06 04:18:59;;;;;;;1.87;1.17;;;;;;;;;;21028925;28;20688;-65
2023/10/06 04:29:04;;;;;;;1.40;0.80;;;;;;;;;;21010704;28;20232;-64
2023/10/06 04:39:11;;;;;;;2.00;1.10;;;;;;;;;;21048298;28;20257;-64
2023/10/06 04:49:12;;;;;;;2.43;1.13;;;;;;;;;;21026797;28;20278;-65
2023/10/06 04:59:14;;;;;;;3.17;1.20;;;;;;;;;;21005996;28;20208;-65
2023/10/06 05:09:17;;;;;;;2.03;1.33;;;;;;;;;;21032944;28;20670;-64
2023/10/06 05:19:20;;;;;;;3.90;1.17;;;;;;;;;;21018217;28;20209;-64
2023/10/06 05:29:28;;;;;;;5.30;1.90;;;10.80;99.90;;;;;;21052492;28;20309;-65
2023/10/06 05:39:34;;;;;;;2.60;1.47;;;;;;;;;;21065067;28;20234;-65
2023/10/06 05:49:38;;;;;;;2.00;1.13;;;;;;;;;;21013191;28;20753;-65
2023/10/06 05:59:40;;;;;;;4.10;1.70;;;;;;;;;;21036714;28;20216;-64
2023/10/06 06:09:42;;;;;;;2.90;1.67;;;;;;;;;;21050009;28;20270;-65
2023/10/06 06:19:44;;;;;;;2.73;1.20;;;;;;;;;;21034683;28;20270;-64
2023/10/06 06:29:46;;;;;;;3.20;1.40;;;;;;;;;;21036274;28;20232;-65
2023/10/06 06:39:48;;;;;;;3.30;1.30;;;;;;;;;;21062836;28;20209;-64
2023/10/06 06:49:50;;;;;;;2.70;1.30;;;;;;;;;;21026184;28;20697;-66
2023/10/06 06:59:52;;;;;;;2.27;1.17;;;;;;;;;;21031479;28;20264;-65
2023/10/06 07:09:54;;;;;;;1.83;1.33;;;;;;;;;;21030071;22;20275;-79
2023/10/06 07:20:00;;;;;;;2.57;1.30;;;;;;;;;;20848184;28;20219;-79
2023/10/06 07:30:04;;;;;;;2.43;1.27;;;;;;;;;;20810390;28;20242;-79
2023/10/06 07:40:12;;;;;;;3.27;1.50;;;;;;;;;;20806894;28;20219;-80
2023/10/06 07:50:15;;;;;;;3.97;1.50;;;;;;;;;;20799914;28;20567;-81
2023/10/06 08:00:32;;;;;;;2.57;1.40;;;12.20;99.90;;;;;;20832624;28;20210;-78
2023/10/06 08:10:34;;;;;;;4.23;1.40;;;;;;;;;;20821238;28;20279;-79
2023/10/06 08:20:35;;;;;;;3.70;1.47;;;;;;;;;;20786309;28;20210;-78
2023/10/06 08:30:37;;;;;;;2.73;1.57;;;;;;;;;;20819329;28;20226;-80
2023/10/06 08:40:42;;;;;;;2.63;1.60;;;;;;;;;;20830630;28;20244;-80
2023/10/06 08:50:44;;;;;;;2.67;1.57;;;13.40;99.90;;;;;;20848265;28;20295;-77
2023/10/06 09:00:46;;;;;;;4.77;1.80;;;;;;;;;;20820081;28;20218;-78
2023/10/06 09:10:49;;;;;;;3.57;1.70;;;;;;;;;;20791519;28;20222;-80
2023/10/06 09:20:51;;;;;;;3.93;1.80;;;;;;;;;;20817872;28;20226;-78
2023/10/06 09:31:00;;;;;;;2.97;1.40;;;14.00;99.90;;;;;;20852149;28;20238;-80
2023/10/06 09:41:02;;;;;;;4.17;1.87;;;;;;;;;;20819616;28;20627;-80
2023/10/06 09:51:07;;;;;;;4.03;1.90;;;;;;;;;;20827969;28;20245;-79
2023/10/06 10:01:10;;;;;;;3.43;1.77;;;;;;;;;;20834780;28;20229;-81
2023/10/06 10:11:14;;;;;;;4.40;1.33;;;;;;;;;;20815855;28;20214;-81
2023/10/06 10:21:16;;;;;;;4.33;1.80;;;;;;;;;;20858469;28;20292;-77
2023/10/06 10:31:20;;;;;;;3.00;1.60;;;15.50;99.90;;;;;;20836755;28;20285;-78
2023/10/06 10:41:26;;;;;;;5.37;1.60;;;15.80;99.90;;;;;;20834306;28;20236;-80
2023/10/06 10:51:33;;;;;;;2.83;1.23;;;16.00;99.90;;;;;;20837059;28;20210;-79
2023/10/06 11:01:38;;;;;;;3.43;1.57;;;;;;;;;;20832833;28;20234;-80
2023/10/06 11:11:40;;;;;;;4.07;1.50;;;;;;;;;;20824738;28;20230;-79
2023/10/06 11:21:47;;;;;;;4.27;1.40;;;16.70;99.90;;;;;;20832273;28;20206;-78
2023/10/06 11:31:50;;;;;;;4.40;1.13;;;;;;;;;;20819541;28;20222;-79
2023/10/06 11:41:55;;;;;;;3.07;1.10;;;;;;;;;;20828199;28;20211;-76
2023/10/06 11:51:57;;;;;;;1.87;1.07;;;;;;;;;;20829243;28;20276;-78
2023/10/06 12:02:09;;;;;;;2.77;1.40;;;;;;;;;;20826878;28;20284;-78
2023/10/06 12:12:10;;;;;;;2.77;1.10;;;;;;;;;;20834991;28;20213;-78
2023/10/06 12:22:12;;;;;;;1.90;1.20;;;;;;;;;;20826449;28;20643;-79
2023/10/06 12:32:14;;;;;;;1.40;0.80;;;;;;;;;;20824721;28;20617;-77
2023/10/06 12:42:16;;;;;;;3.33;1.20;;;;;;;;;;20773225;28;20214;-78
2023/10/06 12:52:18;;;;;;;2.00;1.10;;;;;;;;;;20816466;28;20272;-78
2023/10/06 13:02:24;;;;;;;2.47;1.23;;;;;;;;;;20826245;28;20214;-78
2023/10/06 13:12:28;;;;;;;2.13;0.90;;;;;;;;;;20826102;28;20214;-78
2023/10/06 13:22:30;;;;;;;1.83;0.90;;;;;;;;;;20846145;28;20202;-79
2023/10/06 13:32:36;;;;;;;2.67;1.10;;;17.50;99.90;;;;;;20813958;28;20233;-79
2023/10/06 13:42:46;;;;;;;3.27;1.30;;;;;;;;;;20869404;22;20206;-81
2023/10/06 13:52:51;;;;;;;3.17;1.03;;;;;;;;;;20775722;28;20231;-80
2023/10/06 14:02:53;;;;;;;2.37;1.20;;;;;;;;;;20699739;28;20211;-80
2023/10/06 14:13:05;;;;;;;2.10;1.10;;;;;;;;;;20720090;28;20289;-80
2023/10/06 14:23:09;;;;;;;2.87;1.43;;;;;;;;;;20728285;28;20234;-81
2023/10/06 14:53:34;;;;;;;2.70;1.60;;;;;;;;;;20745179;28;20228;-80
2023/10/06 15:03:36;;;;;;;5.60;1.40;;;;;;;;;;20750598;28;20203;-78
2023/10/06 15:13:37;;;;;;;4.17;1.07;;;17.70;99.90;;;;;;20723472;28;20238;-77
2023/10/06 15:23:39;;;;;;;2.37;1.30;;;;;;;;;;20735012;28;20211;-79
2023/10/06 15:33:45;;;;;;;2.87;1.30;;;;;;;;;;20729965;28;20215;-80
2023/10/06 15:43:47;;;;;;;2.97;1.50;;;;;;;;;;20721692;28;20242;-79
2023/10/06 15:53:50;;;;;;;4.87;1.27;;;;;;;;;;20727264;28;20238;-79
2023/10/06 16:03:53;;;;;;;3.07;1.40;;;;;;;;;;20721488;28;20238;-79
2023/10/06 16:13:54;;;;;;;3.17;1.50;;;;;;;;;;20734046;28;20219;-79
2023/10/06 16:23:57;;;;;;;3.30;1.50;;;;;;;;;;20730064;28;20269;-77
2023/10/06 16:33:59;;;;;;;5.37;1.67;;;;;;;;;;20705673;28;20320;-78
2023/10/06 16:44:01;;;;;;;2.40;1.37;;;;;;;;;;20736832;28;20273;-77
2023/10/06 16:54:04;;;;;;;6.40;1.50;;;;;;;;;;20753595;28;20277;-77
2023/10/06 17:04:06;;;;;;;2.60;1.33;;;;;;;;;;20741591;28;20234;-78
2023/10/06 17:14:09;;;;;;;3.33;1.57;;;;;;;;;;20748087;28;20236;-78
2023/10/06 17:24:11;;;;;;;3.37;1.27;;;;;;;;;;20715942;28;20211;-77
2023/10/06 17:34:17;;;;;;;6.17;1.83;;;;;;;;;;20722010;28;20285;-77
2023/10/06 17:44:22;;;;;;;3.43;1.30;;;;;;;;;;20715700;28;20698;-78
2023/10/06 17:54:24;;;;;;;4.97;1.60;;;;;;;;;;20709670;28;20713;-77
2023/10/06 18:04:26;;;;;;;5.37;1.60;;;;;;;;;;20755609;28;20215;-77
2023/10/06 18:14:28;;;;;;;5.23;1.97;;;;;;;;;;20736809;28;20222;-76
2023/10/06 18:24:30;;;;;;;2.87;2.00;;;;;;;;;;20728651;28;20223;-76
2023/10/06 18:34:33;;;;;;;5.53;2.30;;;;;;;;;;20746812;28;20277;-76
2023/10/06 18:44:35;;;;;;;4.63;2.33;;;;;;;;;;20756501;28;20215;-77
2023/10/06 18:54:38;;;;;;;3.70;2.00;;;;;;;;;;20724301;28;20634;-77
2023/10/06 19:04:39;;;;;;;3.47;1.80;;;;;;;;;;20722571;28;20308;-76
2023/10/06 19:14:42;;;;;;;13.60;2.53;;;;;;;;;;20726832;28;20302;-76
2023/10/06 19:24:44;;;;;;;3.70;2.10;;;;;;;;;;20745501;28;20207;-75
2023/10/06 19:34:47;;;;;;;4.20;1.73;;;;;;;;;;20746771;28;20219;-76
2023/10/06 19:44:49;;;;;;;3.33;1.93;;;;;;;;;;20728793;28;20277;-76
2023/10/06 19:54:50;;;;;;;3.60;2.13;;;;;;;;;;20689408;28;20850;-76
2023/10/06 20:04:52;;;;;;;3.60;1.90;;;;;;;;;;20742829;28;20326;-77
2023/10/06 20:14:55;;;;;;;3.83;2.17;;;;;;;;;;20869821;22;20241;-76
2023/10/06 20:24:57;;;;;;;5.57;2.60;;;;;;;;;;20813580;28;20214;-76
2023/10/06 20:34:59;;;;;;;5.10;2.70;;;;;;;;;;20823009;28;20234;-75
2023/10/06 20:45:00;;;;;;;5.63;2.67;;;;;;;;;;20811629;28;20280;-77
2023/10/06 20:55:06;;;;;;;5.53;2.97;;;;;;;;;;20801540;28;20218;-76
2023/10/06 21:05:10;;;;;;;4.80;2.30;;;;;;;;;;20804109;28;20206;-76
2023/10/06 21:15:13;;;;;;;4.53;2.60;;;;;;;;;;20815956;28;20222;-75
2023/10/06 21:25:16;;;;;;;3.30;1.93;;;;;;;;;;20799988;28;20276;-77
2023/10/06 21:35:19;;;;;;;4.67;2.33;;;;;;;;;;20831788;28;20222;-76
2023/10/06 21:45:21;;;;;;;5.20;2.40;;;;;;;;;;20816809;28;20506;-76
2023/10/06 21:55:23;;;;;;;6.50;2.43;;;;;;;;;;20836031;28;20222;-76
2023/10/06 22:05:25;;;;;;;4.47;2.30;;;;;;;;;;20829898;28;20249;-76
2023/10/06 22:15:27;;;;;;;5.77;2.47;;;;;;;;;;20837510;28;20814;-75
2023/10/06 22:25:29;;;;;;;3.60;1.87;;;;;;;;;;20829250;28;20218;-76
2023/10/06 22:35:30;;;;;;;4.07;2.10;;;;;;;;;;20828030;28;20273;-75
2023/10/06 22:45:36;;;;;;;5.43;2.33;;;;;;;;;;20839104;28;20219;-75
2023/10/06 22:55:38;;;;;;;5.50;2.20;;;;;;;;;;20830733;28;20207;-75
2023/10/06 23:05:39;;;;;;;5.23;2.43;;;;;;;;;;20806065;28;20646;-75
2023/10/06 23:15:45;;;;;;;5.70;2.53;;;;;;;;;;20796847;28;20286;-75
2023/10/06 23:25:49;;;;;;;5.03;2.43;;;;;;;;;;20805289;28;20284;-75
2023/10/06 23:35:53;;;;;;;6.93;2.20;;;;;;;;;;20830839;28;20222;-75
2023/10/06 23:45:55;;;;;;;4.17;2.30;;;;;;;;;;20821517;28;20592;-75
2023/10/06 23:56:03;;;;;;;4.50;2.27;;;;;;;;;;20822523;28;20226;-77
